Argyle, Florida
Current Conditions -  °F | °C
As of 8:35 PM on Wednesday 17 Dec 2014 (Local Time) from K54J Reporting Station
Clear Clear  
Wind Chill: 43°   Ceiling: Unl
Heat Index: 43°   Visibility: 10mi
Dew Point: 41°   Wind: 3mph
Humidity: 91%   Direction: 330°NNW
Pressure: 30.18"   Gusts: NA
Location:  30.72°N, 86.04°W
Report Text: K54J 180235Z AUTO 33003KT 10SM CLR 06/05 A3018 RMK AO2 T00630050
Loading
Personal Weather Stations






























Interactive Weather Map New forecast layout! Learn more

10-Day Weather Forecast

Advertisements
Track Severe Weather on mobile